Time;durP1;ratioP1;P1;durP2;ratioP2;P2;SDS_P1;SDS_P2;PMS_P1;PMS_P2;Temp;Humidity;BMP_temperature;BMP_pressure;BME280_temperature;BME280_humidity;BME280_pressure;Samples;Min_cycle;Max_cycle;Signal;HPM_P1;HPM_P2
2023/04/17 00:00:26;;;;;;;1.10;0.98;;;;;;;11.56;100.00;97037.34;5094540;28;20505;-80
2023/04/17 00:02:51;;;;;;;1.25;1.02;;;;;;;11.62;100.00;97023.50;5077407;28;20027;-79
2023/04/17 00:05:52;;;;;;;1.35;0.95;;;;;;;11.62;100.00;97016.34;5094795;28;20028;-80
2023/04/17 00:08:18;;;;;;;1.15;1.08;;;;;;;11.51;100.00;96991.28;5092361;28;20043;-80
2023/04/17 00:10:43;;;;;;;3.90;1.63;;;;;;;11.61;100.00;97008.41;5112414;28;20125;-79
2023/04/17 00:13:09;;;;;;;3.55;1.23;;;;;;;11.65;100.00;97004.53;5077549;28;20027;-79
2023/04/17 00:15:35;;;;;;;1.20;1.13;;;;;;;11.71;100.00;97004.09;5077163;28;20071;-79
2023/04/17 00:18:00;;;;;;;2.90;2.40;;;;;;;11.75;100.00;96997.53;5094205;28;20441;-78
2023/04/17 00:20:26;;;;;;;4.55;2.63;;;;;;;11.76;100.00;96985.84;5077054;28;20035;-78
2023/04/17 00:22:51;;;;;;;2.08;1.38;;;;;;;11.77;100.00;96988.41;5077128;28;20523;-78
2023/04/17 00:25:17;;;;;;;2.95;2.17;;;;;;;11.81;100.00;96994.41;5077184;28;20122;-78
2023/04/17 00:27:42;;;;;;;8.93;2.15;;;;;;;11.82;100.00;97001.44;5094125;28;20028;-78
2023/04/17 00:30:08;;;;;;;2.50;1.98;;;;;;;11.90;100.00;97013.28;5074225;28;20047;-79
2023/04/17 00:32:34;;;;;;;3.67;1.23;;;;;;;11.89;100.00;97008.94;5093894;28;20090;-78
2023/04/17 00:35:00;;;;;;;4.30;3.28;;;;;;;11.91;100.00;97008.78;5076700;28;20028;-78
2023/04/17 00:37:25;;;;;;;1.63;1.50;;;;;;;11.91;100.00;97004.28;5076977;28;20031;-78
2023/04/17 00:39:51;;;;;;;3.83;1.50;;;;;;;11.91;100.00;97006.09;5076706;28;20024;-78
2023/04/17 00:42:16;;;;;;;3.30;1.88;;;;;;;11.91;100.00;97011.47;5076849;28;20027;-78
2023/04/17 00:44:42;;;;;;;1.60;1.50;;;;;;;11.85;100.00;97010.13;5093731;28;20569;-78
2023/04/17 00:47:07;;;;;;;1.20;0.77;;;;;;;11.85;100.00;97017.28;5069140;28;20049;-78
2023/04/17 00:49:33;;;;;;;0.55;0.55;;;;;;;11.82;100.00;97023.75;5048285;28;20108;-79
2023/04/17 00:51:58;;;;;;;0.88;0.85;;;;;;;11.75;100.00;97011.78;5030397;28;20063;-78
2023/04/17 00:54:24;;;;;;;3.22;2.42;;;;;;;11.75;100.00;97014.44;5029665;28;20051;-78
2023/04/17 00:56:51;;;;;;;2.83;1.92;;;;;;;11.70;100.00;97005.06;5030791;28;20085;-78
2023/04/17 00:59:17;;;;;;;1.73;1.00;;;;;;;11.73;100.00;97010.19;5013749;28;20483;-78
2023/04/17 01:01:43;;;;;;;2.50;1.48;;;;;;;11.71;100.00;97017.50;5013954;28;20089;-77
2023/04/17 01:04:09;;;;;;;1.75;1.13;;;;;;;11.63;100.00;97023.38;5013830;28;20563;-77
2023/04/17 01:06:35;;;;;;;1.40;1.30;;;;;;;11.64;100.00;97024.22;5030213;28;20028;-80
2023/04/17 01:09:01;;;;;;;2.33;1.10;;;;;;;11.70;100.00;97022.00;5013823;28;20465;-78
2023/04/17 01:11:27;;;;;;;1.25;1.17;;;;;;;11.76;100.00;97015.31;5028839;28;20021;-78
2023/04/17 01:13:52;;;;;;;5.68;1.02;;;;;;;11.73;100.00;97013.72;5013824;28;20025;-78
2023/04/17 01:16:18;;;;;;;0.82;0.80;;;;;;;11.66;100.00;97012.44;5013396;28;20059;-78
2023/04/17 01:18:45;;;;;;;4.13;1.30;;;;;;;11.67;100.00;97018.66;5013662;28;20029;-79
2023/04/17 01:21:10;;;;;;;1.15;0.93;;;;;;;11.68;100.00;97013.19;5013860;28;20464;-78
2023/04/17 01:23:51;;;;;;;4.50;1.60;;;;;;;11.79;100.00;97023.97;5013559;28;20103;-79
2023/04/17 01:26:19;;;;;;;1.30;1.20;;;;;;;11.80;100.00;97022.16;5013752;28;20063;-78
2023/04/17 01:28:53;;;;;;;3.25;1.00;;;;;;;11.94;100.00;97021.97;5013469;28;20033;-78
2023/04/17 01:31:19;;;;;;;2.83;1.73;;;;;;;11.82;100.00;97012.16;5030004;28;20036;-79
2023/04/17 01:33:45;;;;;;;2.15;1.63;;;;;;;11.78;100.00;97021.44;5013514;28;20503;-79
2023/04/17 01:36:11;;;;;;;0.75;0.63;;;;;;;11.82;100.00;97020.22;5013350;28;20090;-79
2023/04/17 01:38:37;;;;;;;2.30;1.95;;;;;;;11.83;100.00;97013.88;5013378;28;20029;-79
2023/04/17 01:41:08;;;;;;;1.95;1.75;;;;;;;11.80;100.00;97003.41;5013520;28;20025;-79
2023/04/17 01:43:45;;;;;;;2.15;1.63;;;;;;;11.84;100.00;97003.03;4998183;28;20033;-79
2023/04/17 01:46:10;;;;;;;8.35;3.00;;;;;;;11.73;100.00;96991.44;5013328;28;20068;-79
2023/04/17 01:48:36;;;;;;;2.22;1.85;;;;;;;11.70;100.00;96984.47;5013456;28;20523;-79
2023/04/17 01:51:03;;;;;;;3.88;1.88;;;;;;;11.72;100.00;96973.66;5013284;28;20033;-79
2023/04/17 01:53:32;;;;;;;0.85;0.80;;;;;;;11.72;100.00;96976.34;5013092;28;20468;-79
2023/04/17 01:56:01;;;;;;;6.35;1.83;;;;;;;11.69;100.00;96984.59;5013374;28;20025;-79
2023/04/17 01:58:27;;;;;;;1.95;1.83;;;;;;;11.59;100.00;96988.91;5029978;28;20033;-79
2023/04/17 02:00:53;;;;;;;3.15;2.05;;;;;;;11.54;100.00;96993.75;5013301;28;20020;-79
2023/04/17 02:03:18;;;;;;;3.88;2.33;;;;;;;11.47;100.00;96995.19;5013110;28;20165;-79
2023/04/17 02:05:47;;;;;;;2.55;1.30;;;;;;;11.48;100.00;97015.63;5015616;28;20105;-79
2023/04/17 02:08:13;;;;;;;1.58;1.38;;;;;;;11.50;100.00;97011.88;5033204;28;20165;-78
2023/04/17 02:10:40;;;;;;;2.40;1.30;;;;;;;11.54;100.00;97012.47;5016300;28;20029;-78
2023/04/17 02:13:06;;;;;;;2.00;1.75;;;;;;;11.57;100.00;97006.91;5033315;28;20036;-79
2023/04/17 02:15:31;;;;;;;1.98;1.73;;;;;;;11.65;100.00;97002.69;5033150;28;20037;-78
2023/04/17 02:17:57;;;;;;;1.52;1.42;;;;;;;11.66;100.00;97000.88;5032984;28;20033;-79
2023/04/17 02:20:22;;;;;;;1.92;1.10;;;;;;;11.70;100.00;97002.38;5016383;28;20181;-79
2023/04/17 02:22:48;;;;;;;1.25;1.23;;;;;;;11.73;100.00;96997.66;5033144;28;20037;-78
2023/04/17 02:25:14;;;;;;;5.07;1.75;;;;;;;11.78;100.00;96994.63;5016290;28;20484;-78
2023/04/17 02:27:40;;;;;;;2.15;1.70;;;;;;;11.82;100.00;96988.91;5016212;28;20033;-78
2023/04/17 02:30:06;;;;;;;1.38;1.27;;;;;;;11.79;100.00;96980.25;5016100;28;20494;-78
2023/04/17 02:32:32;;;;;;;0.93;0.80;;;;;;;11.74;100.00;96979.75;5032703;28;20043;-78
2023/04/17 02:34:57;;;;;;;1.35;1.25;;;;;;;11.68;100.00;96978.38;5032834;28;20049;-79
2023/04/17 02:37:26;;;;;;;2.08;1.45;;;;;;;11.71;100.00;96983.53;5016714;28;20028;-79
2023/04/17 02:39:53;;;;;;;2.83;1.48;;;;;;;11.76;100.00;96988.50;5016125;28;20036;-79
2023/04/17 02:42:18;;;;;;;1.92;1.40;;;;;;;11.73;100.00;96986.06;5016120;28;20037;-79
2023/04/17 02:44:47;;;;;;;3.70;2.88;;;;;;;11.61;100.00;96987.81;5032467;28;20124;-79
2023/04/17 02:47:12;;;;;;;2.95;1.50;;;;;;;11.53;100.00;96978.66;5015868;28;20421;-79
2023/04/17 02:49:38;;;;;;;4.63;2.28;;;;;;;11.60;100.00;96991.47;5016005;28;20044;-79
2023/04/17 02:52:03;;;;;;;1.92;1.83;;;;;;;11.56;100.00;96999.84;5016209;28;20115;-79
2023/04/17 02:54:29;;;;;;;1.20;1.10;;;;;;;11.55;100.00;96988.28;5015810;28;20033;-78
2023/04/17 02:56:57;;;;;;;2.58;1.58;;;;;;;11.59;100.00;96989.78;5032110;28;20575;-78
2023/04/17 02:59:25;;;;;;;1.40;1.30;;;;;;;11.55;100.00;97000.81;5032882;28;20032;-78
2023/04/17 03:01:50;;;;;;;2.85;1.83;;;;;;;11.62;100.00;97007.44;5015815;28;20036;-78
2023/04/17 03:04:16;;;;;;;1.90;1.75;;;;;;;11.65;100.00;97007.19;5032384;28;20104;-78
2023/04/17 03:06:41;;;;;;;1.10;1.02;;;;;;;11.66;100.00;97014.28;5015567;28;20032;-78
2023/04/17 03:09:07;;;;;;;2.22;1.30;;;;;;;11.68;100.00;97005.16;5015665;28;20021;-79
2023/04/17 03:11:33;;;;;;;1.80;1.15;;;;;;;11.67;100.00;97003.44;5015752;28;20032;-79
2023/04/17 03:13:58;;;;;;;3.17;1.48;;;;;;;11.62;100.00;96994.03;5015669;28;20033;-79
2023/04/17 03:16:24;;;;;;;2.17;1.27;;;;;;;11.70;100.00;96994.34;5014850;28;20105;-78
2023/04/17 03:18:49;;;;;;;2.97;2.08;;;;;;;11.69;100.00;96989.94;5015385;28;20036;-78
2023/04/17 03:21:15;;;;;;;0.80;0.80;;;;;;;11.63;100.00;96990.41;5032177;28;20392;-78
2023/04/17 03:23:41;;;;;;;1.67;1.25;;;;;;;11.73;100.00;96994.97;5015235;28;20416;-78
2023/04/17 03:26:06;;;;;;;4.07;2.25;;;;;;;11.68;100.00;96989.09;5015391;28;20062;-78
2023/04/17 03:28:32;;;;;;;1.10;1.05;;;;;;;11.72;100.00;96989.75;5032025;28;20041;-78
2023/04/17 03:30:58;;;;;;;1.55;1.02;;;;;;;11.74;100.00;96996.69;5014980;28;20495;-79
2023/04/17 03:33:24;;;;;;;3.80;2.85;;;;;;;11.75;100.00;97001.06;5031905;28;20044;-78
2023/04/17 03:35:50;;;;;;;4.63;2.17;;;;;;;11.71;100.00;96999.59;5014987;28;20029;-79
2023/04/17 03:38:16;;;;;;;2.35;1.40;;;;;;;11.70;100.00;97003.25;5031642;28;20081;-78
2023/04/17 03:40:42;;;;;;;2.67;2.03;;;;;;;11.62;100.00;96994.91;5015182;28;20021;-80
2023/04/17 03:43:07;;;;;;;1.80;1.45;;;;;;;11.66;100.00;96992.84;5015048;28;20445;-78
2023/04/17 03:45:33;;;;;;;3.65;1.60;;;;;;;11.66;100.00;97006.25;5032307;28;20024;-79
2023/04/17 03:48:01;;;;;;;1.63;1.50;;;;;;;11.64;100.00;96994.75;5029031;28;20041;-80
2023/04/17 03:50:45;;;;;;;3.17;1.13;;;;;;;11.59;100.00;96991.59;5028783;28;20389;-79
2023/04/17 03:53:23;;;;;;;;;;;;;;;;;;;;;
2023/04/17 03:55:54;;;;;;;7.55;2.72;;;;;;;11.31;100.00;96966.88;5028634;28;20037;-79
2023/04/17 03:58:29;;;;;;;10.00;1.92;;;;;;;11.64;100.00;97011.69;5008590;28;20026;-79
2023/04/17 04:01:11;;;;;;;2.67;1.67;;;;;;;11.41;100.00;96953.66;5001127;28;20025;-80
2023/04/17 04:03:37;;;;;;;1.30;1.20;;;;;;;11.74;100.00;97004.72;5011829;28;20041;-78
2023/04/17 04:06:11;;;;;;;2.25;1.70;;;;;;;11.74;100.00;97003.88;5012081;28;20277;-81
2023/04/17 04:08:37;;;;;;;2.67;1.52;;;;;;;11.77;100.00;96999.13;5028063;28;20030;-79
2023/04/17 04:11:03;;;;;;;3.97;2.05;;;;;;;11.79;100.00;97002.53;5011841;28;20086;-80
2023/04/17 04:13:32;;;;;;;4.57;2.40;;;;;;;11.82;100.00;96994.28;5027844;28;20044;-77
2023/04/17 04:15:58;;;;;;;3.80;2.13;;;;;;;11.78;100.00;96983.91;5027653;28;20033;-81
2023/04/17 04:18:23;;;;;;;5.05;1.55;;;;;;;11.82;100.00;96988.91;5011593;28;20033;-81
2023/04/17 04:20:49;;;;;;;1.80;1.58;;;;;;;11.87;100.00;96993.94;5028097;28;20057;-81
2023/04/17 04:23:15;;;;;;;2.80;1.42;;;;;;;11.89;100.00;96990.16;5011639;28;20124;-82
2023/04/17 04:26:06;;;;;;;1.13;1.00;;;;;;;12.03;100.00;96993.63;5011628;28;20072;-83
2023/04/17 04:28:32;;;;;;;4.10;2.38;;;;;;;11.96;100.00;96985.19;5029113;28;20026;-81
2023/04/17 04:30:57;;;;;;;2.40;1.75;;;;;;;11.97;100.00;96967.28;5028036;28;20029;-81
2023/04/17 04:33:23;;;;;;;2.22;1.98;;;;;;;12.07;100.00;96974.50;5028112;28;20412;-81
2023/04/17 04:35:50;;;;;;;3.22;2.17;;;;;;;12.11;100.00;96970.63;5011340;28;20065;-83
2023/04/17 04:38:16;;;;;;;3.05;1.73;;;;;;;12.11;100.00;96956.34;5027907;28;20033;-81
2023/04/17 04:40:50;;;;;;;3.38;2.38;;;;;;;12.30;100.00;96980.75;5011256;28;20029;-83
2023/04/17 04:43:16;;;;;;;3.67;1.75;;;;;;;12.36;100.00;96953.47;5012633;28;20033;-83
2023/04/17 04:45:45;;;;;;;2.70;1.50;;;;;;;12.64;100.00;96962.88;5027720;28;20124;-83
2023/04/17 04:48:10;;;;;;;4.85;2.05;;;;;;;12.93;100.00;96964.91;5010981;28;20038;-82
2023/04/17 04:50:36;;;;;;;1.65;1.52;;;;;;;13.25;100.00;96945.38;5027752;28;20028;-81
2023/04/17 04:53:01;;;;;;;0.82;0.82;;;;;;;13.51;100.00;96923.41;5011034;28;20561;-81
2023/04/17 04:55:29;;;;;;;2.70;2.03;;;;;;;13.63;100.00;96904.56;5027861;28;20074;-82
2023/04/17 04:57:54;;;;;;;3.83;1.60;;;;;;;13.64;100.00;96885.63;5027506;28;20056;-82
2023/04/17 05:00:20;;;;;;;1.75;1.63;;;;;;;13.56;100.00;96882.75;5011022;28;20064;-82
2023/04/17 05:06:08;;;;;;;7.57;2.75;;;;;;;13.02;100.00;96839.81;5029550;28;20043;-82
2023/04/17 05:08:33;;;;;;;30.58;7.60;;;;;;;13.19;100.00;96879.59;5010803;28;20033;-81
2023/04/17 05:10:59;;;;;;;11.55;7.63;;;;;;;13.21;100.00;96891.06;5010701;28;20044;-81
2023/04/17 05:13:24;;;;;;;3.22;2.65;;;;;;;13.10;100.00;96877.69;5027741;28;20025;-81
2023/04/17 05:15:50;;;;;;;4.32;2.55;;;;;;;13.13;100.00;96890.00;5027317;28;20030;-82
2023/04/17 05:18:15;;;;;;;2.15;1.50;;;;;;;13.21;100.00;96898.25;5026933;28;20508;-81
2023/04/17 05:20:41;;;;;;;1.48;1.38;;;;;;;13.31;100.00;96885.78;5010327;28;20100;-82
2023/04/17 05:23:06;;;;;;;1.95;1.60;;;;;;;13.35;100.00;96871.94;5010899;28;20029;-82
2023/04/17 05:25:32;;;;;;;4.10;1.15;;;;;;;13.41;100.00;96878.66;5010376;28;20102;-81
2023/04/17 05:27:57;;;;;;;3.47;1.63;;;;;;;13.36;100.00;96859.38;5010692;28;20022;-82
2023/04/17 05:30:23;;;;;;;1.90;1.30;;;;;;;13.58;100.00;96860.13;5009979;28;20026;-81
2023/04/17 05:32:48;;;;;;;0.90;0.85;;;;;;;13.79;100.00;96845.81;5010992;28;20040;-82
2023/04/17 05:35:14;;;;;;;0.77;0.68;;;;;;;14.08;100.00;96836.97;5010399;28;20116;-81
2023/04/17 05:37:42;;;;;;;1.42;0.95;;;;;;;14.27;100.00;96838.88;5010669;28;20436;-83
2023/04/17 05:40:08;;;;;;;0.80;0.65;;;;;;;14.13;100.00;96815.03;5012371;28;20026;-82
2023/04/17 05:42:34;;;;;;;4.43;1.38;;;;;;;14.10;100.00;96818.84;5030394;28;20036;-83
2023/04/17 05:44:59;;;;;;;0.98;0.60;;;;;;;14.11;100.00;96827.75;5030483;28;20078;-82
2023/04/17 05:47:25;;;;;;;2.05;0.77;;;;;;;14.17;100.00;96819.16;5030299;28;20048;-81
2023/04/17 05:49:56;;;;;;;2.58;2.10;;;;;;;14.30;100.00;96818.94;5013612;28;20026;-84
2023/04/17 05:52:22;;;;;;;1.70;1.33;;;;;;;14.36;100.00;96813.91;5014233;28;20376;-81
2023/04/17 05:54:48;;;;;;;1.25;0.88;;;;;;;14.43;100.00;96803.41;5048022;28;20032;-80
2023/04/17 05:57:13;;;;;;;0.93;0.85;;;;;;;14.52;100.00;96795.38;5013568;28;20025;-80
2023/04/17 05:59:39;;;;;;;7.05;3.67;;;;;;;14.55;100.00;96797.78;5011926;28;20100;-71
2023/04/17 06:02:04;;;;;;;1.70;0.90;;;;;;;14.63;100.00;96800.66;5020573;28;20030;-70
2023/04/17 06:04:30;;;;;;;1.55;1.35;;;;;;;14.74;100.00;96801.50;5008862;28;20029;-69
2023/04/17 06:06:56;;;;;;;7.78;2.53;;;;;;;14.66;100.00;96807.59;5026329;28;20028;-83
2023/04/17 06:09:21;;;;;;;1.52;0.85;;;;;;;14.59;100.00;96801.91;5010997;28;20026;-87
2023/04/17 06:11:47;;;;;;;1.08;0.98;;;;;;;14.57;100.00;96797.66;5027612;28;20032;-87
2023/04/17 06:14:24;;;;;;;0.70;0.70;;;;;;;14.73;100.00;96802.50;5011510;28;20033;-86
2023/04/17 06:16:50;;;;;;;0.73;0.70;;;;;;;14.73;100.00;96803.38;5029547;28;20034;-85
2023/04/17 06:19:15;;;;;;;0.82;0.82;;;;;;;14.45;100.00;96805.00;5029889;28;20033;-80
2023/04/17 06:21:41;;;;;;;1.17;1.05;;;;;;;14.77;100.00;96814.69;5013652;28;20026;-79
2023/04/17 06:24:07;;;;;;;1.30;0.98;;;;;;;14.85;100.00;96801.41;5013466;28;20029;-80
2023/04/17 06:26:33;;;;;;;0.95;0.85;;;;;;;14.82;100.00;96797.16;5013710;28;20029;-80
2023/04/17 06:28:59;;;;;;;3.92;1.20;;;;;;;14.93;100.00;96797.00;5013081;28;20029;-79
2023/04/17 06:31:25;;;;;;;0.73;0.65;;;;;;;14.98;100.00;96792.03;5013116;28;20393;-77
2023/04/17 06:33:51;;;;;;;0.90;0.88;;;;;;;14.79;100.00;96805.50;5013311;28;20033;-80
2023/04/17 06:36:17;;;;;;;1.55;1.08;;;;;;;15.05;100.00;96803.09;5028642;28;20032;-81
2023/04/17 06:38:42;;;;;;;8.52;3.45;;;;;;;15.02;100.00;96790.78;5029546;28;20049;-78
2023/04/17 06:41:08;;;;;;;2.72;1.17;;;;;;;15.06;100.00;96791.34;5003681;28;20032;-80
2023/04/17 06:43:33;;;;;;;3.80;1.27;;;;;;;15.38;100.00;96802.69;5025666;28;20029;-77
2023/04/17 06:45:59;;;;;;;0.50;0.50;;;;;;;15.12;100.00;96796.19;5011809;28;20075;-79
2023/04/17 06:48:24;;;;;;;0.95;0.85;;;;;;;15.26;100.00;96809.22;5029339;28;20045;-79
2023/04/17 06:50:50;;;;;;;0.88;0.60;;;;;;;14.88;100.00;96782.28;5014422;28;20393;-78
2023/04/17 06:53:15;;;;;;;1.73;0.93;;;;;;;15.10;100.00;96792.78;5011967;28;20124;-81
2023/04/17 06:55:41;;;;;;;0.45;0.45;;;;;;;15.06;100.00;96783.28;5010925;28;20044;-80
2023/04/17 06:58:07;;;;;;;2.90;2.13;;;;;;;15.44;100.00;96798.59;5011250;28;20033;-79
2023/04/17 07:00:33;;;;;;;3.53;1.92;;;;;;;16.08;100.00;96798.75;5027695;28;20469;-80
2023/04/17 07:02:59;;;;;;;3.33;0.65;;;;;;;15.87;100.00;96787.34;5028014;28;20048;-80
2023/04/17 07:05:25;;;;;;;13.23;5.70;;;;;;;16.20;100.00;96790.34;5026670;28;20138;-80
2023/04/17 07:07:50;;;;;;;18.42;4.78;;;;;;;16.51;100.00;96777.41;5019734;28;20110;-73
2023/04/17 07:10:18;;;;;;;5.82;4.18;;;;;;;16.99;100.00;96770.88;5017876;28;20090;-77
2023/04/17 07:12:44;;;;;;;2.10;1.88;;;;;;;17.08;100.00;96769.94;5003719;28;20064;-75
2023/04/17 07:15:10;;;;;;;3.30;1.90;;;;;;;17.11;100.00;96758.81;5024918;28;20135;-74
2023/04/17 07:17:35;;;;;;;8.68;1.75;;;;;;;17.22;100.00;96772.97;5023052;28;20033;-71
2023/04/17 07:20:01;;;;;;;4.13;2.75;;;;;;;16.79;100.00;96786.38;5025271;28;20022;-70
2023/04/17 07:22:27;;;;;;;46.83;6.00;;;;;;;16.67;100.00;96776.78;5008719;28;20045;-72
2023/04/17 07:24:53;;;;;;;0.73;0.65;;;;;;;16.89;100.00;96773.63;5008137;28;20030;-70
2023/04/17 07:27:19;;;;;;;2.40;1.60;;;;;;;16.66;100.00;96780.47;5024044;28;20029;-70
2023/04/17 07:29:46;;;;;;;1.02;0.93;;;;;;;16.33;100.00;96773.81;5024461;28;20022;-70
2023/04/17 07:32:12;;;;;;;0.75;0.75;;;;;;;15.92;100.00;96779.63;5026519;28;20116;-71
2023/04/17 07:34:40;;;;;;;0.57;0.43;;;;;;;16.14;100.00;96792.78;5025547;28;20029;-74
2023/04/17 07:37:05;;;;;;;1.30;0.77;;;;;;;16.14;100.00;96795.47;5008834;28;20148;-72
2023/04/17 07:39:31;;;;;;;0.60;0.47;;;;;;;16.49;100.00;96798.28;5025234;28;20407;-70
2023/04/17 07:41:57;;;;;;;2.70;0.95;;;;;;;16.99;100.00;96781.66;5024898;28;20029;-74
2023/04/17 07:44:22;;;;;;;1.75;1.08;;;;;;;17.38;100.00;96783.06;5008605;28;20082;-73
2023/04/17 07:46:48;;;;;;;0.35;0.35;;;;;;;18.42;100.00;96774.00;5009605;28;20450;-71
2023/04/17 07:49:13;;;;;;;1.92;1.20;;;;;;;18.84;100.00;96755.91;5027943;28;20025;-70
2023/04/17 07:51:39;;;;;;;1.02;0.40;;;;;;;19.06;98.13;96746.28;5011766;28;20119;-71
2023/04/17 07:54:05;;;;;;;1.95;1.20;;;;;;;19.35;97.62;96751.22;5028229;28;20476;-71
2023/04/17 07:56:33;;;;;;;44.00;3.58;;;;;;;18.58;100.00;96747.00;5045957;28;20036;-70
2023/04/17 07:58:59;;;;;;;3.55;1.10;;;;;;;18.14;99.87;96732.75;5011689;28;20483;-71
2023/04/17 08:01:25;;;;;;;0.80;0.73;;;;;;;17.93;100.00;96755.81;5027919;28;20017;-70
2023/04/17 08:03:51;;;;;;;3.20;1.00;;;;;;;17.77;100.00;96762.81;5027888;28;20037;-70
2023/04/17 08:06:17;;;;;;;3.40;1.45;;;;;;;17.40;100.00;96764.84;5011579;28;20874;-71
2023/04/17 08:08:46;;;;;;;5.68;3.45;;;;;;;17.43;100.00;96772.66;5028161;28;20037;-71
2023/04/17 08:11:15;;;;;;;1.15;1.02;;;;;;;17.65;100.00;96764.06;5027856;28;20074;-71
2023/04/17 08:13:40;;;;;;;0.47;0.47;;;;;;;17.52;100.00;96760.88;5027790;28;20028;-70
2023/04/17 08:16:07;;;;;;;5.70;1.42;;;;;;;17.40;100.00;96767.53;5027649;28;20020;-70
2023/04/17 08:18:32;;;;;;;5.88;1.52;;;;;;;17.62;100.00;96760.81;5011495;28;20028;-70
2023/04/17 08:20:58;;;;;;;1.20;1.10;;;;;;;17.45;100.00;96764.34;5027954;28;20029;-72
2023/04/17 08:23:26;;;;;;;0.95;0.75;;;;;;;17.15;100.00;96760.22;5045443;28;20090;-69
2023/04/17 08:25:51;;;;;;;0.73;0.60;;;;;;;16.85;100.00;96761.47;5027619;28;20020;-70
2023/04/17 08:28:20;;;;;;;2.80;1.10;;;;;;;16.71;100.00;96765.50;5027822;28;20036;-71
2023/04/17 08:30:45;;;;;;;0.32;0.30;;;;;;;16.79;100.00;96779.13;5027666;28;20039;-71
2023/04/17 08:33:12;;;;;;;0.95;0.95;;;;;;;16.84;100.00;96762.44;5045368;28;20033;-73
2023/04/17 08:35:37;;;;;;;6.75;1.35;;;;;;;16.73;100.00;96760.78;5027623;28;20029;-70
2023/04/17 08:38:03;;;;;;;0.35;0.30;;;;;;;16.91;100.00;96773.50;5010952;28;20032;-72
2023/04/17 08:40:28;;;;;;;1.25;0.82;;;;;;;16.83;100.00;96770.72;5027418;28;20452;-72
2023/04/17 08:42:54;;;;;;;0.70;0.45;;;;;;;16.83;100.00;96785.03;5045567;28;20025;-70
2023/04/17 08:45:22;;;;;;;1.23;0.90;;;;;;;16.67;100.00;96777.59;5027523;28;20021;-70
2023/04/17 08:47:48;;;;;;;0.80;0.80;;;;;;;16.60;100.00;96776.53;5027799;28;20056;-70
2023/04/17 08:50:18;;;;;;;3.10;1.35;;;;;;;16.32;100.00;96787.44;5009934;28;20029;-70
2023/04/17 08:52:48;;;;;;;0.30;0.25;;;;;;;16.44;100.00;96781.69;5027279;28;20069;-70
2023/04/17 08:55:16;;;;;;;3.50;1.88;;;;;;;16.56;100.00;96785.94;5027153;28;20081;-69
2023/04/17 08:58:08;;;;;;;0.70;0.65;;;;;;;16.52;100.00;96795.28;5010710;28;20041;-70
2023/04/17 09:00:36;;;;;;;1.15;0.90;;;;;;;16.60;100.00;96794.59;5010365;28;20070;-70
2023/04/17 09:03:03;;;;;;;1.70;1.23;;;;;;;16.39;100.00;96794.81;5027502;28;20068;-70
2023/04/17 09:05:35;;;;;;;4.68;1.60;;;;;;;16.30;100.00;96798.41;5027183;28;20033;-71
2023/04/17 09:08:22;;;;;;;0.55;0.55;;;;;;;16.35;100.00;96806.88;5011483;28;20032;-70
2023/04/17 09:10:55;;;;;;;1.08;0.77;;;;;;;16.30;100.00;96800.25;5010800;28;20404;-75
2023/04/17 09:13:23;;;;;;;6.20;1.40;;;;;;;16.27;100.00;96793.31;5010191;28;20036;-75
2023/04/17 09:16:07;;;;;;;2.05;1.00;;;;;;;16.35;100.00;96806.88;5026335;28;20139;-75
2023/04/17 09:18:33;;;;;;;1.17;0.75;;;;;;;16.17;100.00;96811.38;5026177;28;20516;-76
2023/04/17 09:21:00;;;;;;;0.85;0.43;;;;;;;16.14;100.00;96808.97;5026959;28;20062;-75
2023/04/17 09:23:27;;;;;;;2.70;0.85;;;;;;;16.19;100.00;96817.47;5026658;28;20036;-76
2023/04/17 09:26:10;;;;;;;1.02;0.52;;;;;;;16.12;100.00;96813.63;5026954;28;20028;-75
2023/04/17 09:28:38;;;;;;;0.70;0.60;;;;;;;15.89;100.00;96818.56;5096228;28;20100;-75
2023/04/17 09:31:24;;;;;;;1.55;1.00;;;;;;;15.97;100.00;96804.31;5027127;28;20086;-75
2023/04/17 09:34:00;;;;;;;1.35;0.45;;;;;;;16.06;100.00;96816.91;5027076;28;20037;-74
2023/04/17 09:36:26;;;;;;;1.38;0.98;;;;;;;16.15;100.00;96810.69;5026360;28;20476;-75
2023/04/17 09:38:56;;;;;;;1.23;0.82;;;;;;;15.89;100.00;96828.47;5010121;28;20064;-74
2023/04/17 09:41:28;;;;;;;1.33;0.57;;;;;;;15.90;100.00;96832.88;5010354;28;20029;-75
2023/04/17 09:44:04;;;;;;;1.42;0.68;;;;;;;16.00;100.00;96828.31;5026662;28;20025;-77
2023/04/17 09:46:47;;;;;;;0.85;0.70;;;;;;;16.21;100.00;96835.19;5027705;28;20093;-73
2023/04/17 09:49:22;;;;;;;1.98;0.88;;;;;;;16.44;100.00;96837.53;5027232;28;20043;-72
2023/04/17 09:51:49;;;;;;;0.63;0.50;;;;;;;16.80;100.00;96813.22;5026648;28;20064;-76
2023/04/17 09:54:15;;;;;;;0.88;0.60;;;;;;;17.23;100.00;96811.63;5010224;28;20056;-74
2023/04/17 09:56:41;;;;;;;0.43;0.43;;;;;;;17.57;100.00;96798.28;5044104;28;20068;-75
2023/04/17 09:59:07;;;;;;;1.42;0.82;;;;;;;17.83;100.00;96796.47;5026338;28;20526;-74
2023/04/17 10:01:35;;;;;;;18.65;1.80;;;;;;;17.92;100.00;96797.38;5026554;28;20032;-74
2023/04/17 10:04:02;;;;;;;0.65;0.63;;;;;;;17.96;100.00;96788.81;5028664;28;20225;-73
2023/04/17 10:06:29;;;;;;;1.33;1.05;;;;;;;17.74;100.00;96782.06;5028732;28;20082;-75
2023/04/17 10:08:55;;;;;;;1.65;0.70;;;;;;;18.05;100.00;96787.00;5046685;28;20040;-74
2023/04/17 10:11:23;;;;;;;2.03;1.38;;;;;;;18.23;97.43;96766.13;5029308;28;20033;-74
2023/04/17 10:13:54;;;;;;;2.30;0.70;;;;;;;18.31;97.05;96766.16;5029229;28;20449;-75
2023/04/17 10:16:35;;;;;;;3.73;1.53;;;;;;;18.34;95.43;96769.38;5028910;28;20081;-72
2023/04/17 10:19:22;;;;;;;38.53;1.52;;;;;;;18.18;98.03;96773.88;5047003;28;20324;-77
2023/04/17 10:22:17;;;;;;;0.95;0.68;;;;;;;18.05;100.00;96779.72;5046613;28;20033;-75
2023/04/17 10:24:47;;;;;;;1.60;1.08;;;;;;;17.98;100.00;96780.50;5046382;28;20033;-73
2023/04/17 10:27:25;;;;;;;0.93;0.68;;;;;;;17.50;100.00;96792.66;5032063;28;20061;-76
2023/04/17 10:30:01;;;;;;;1.50;1.40;;;;;;;17.49;100.00;96795.50;5049964;28;20021;-76
2023/04/17 10:32:30;;;;;;;3.95;2.17;;;;;;;17.45;100.00;96794.97;5032479;28;20152;-76
2023/04/17 10:35:00;;;;;;;3.08;1.60;;;;;;;17.48;100.00;96793.78;5015600;28;20507;-74
2023/04/17 10:37:51;;;;;;;1.65;1.35;;;;;;;17.50;100.00;96794.50;5029879;28;20088;-75
2023/04/17 10:40:21;;;;;;;1.67;1.42;;;;;;;17.11;100.00;96786.69;5029143;28;20416;-76
2023/04/17 10:43:19;;;;;;;0.47;0.47;;;;;;;17.12;100.00;96790.25;5012728;28;20452;-76
2023/04/17 10:46:04;;;;;;;0.70;0.70;;;;;;;16.91;100.00;96795.09;5012727;28;20060;-77
2023/04/17 10:48:51;;;;;;;0.73;0.70;;;;;;;16.87;100.00;96799.09;5028768;28;20053;-75
2023/04/17 10:51:22;;;;;;;1.95;0.50;;;;;;;16.53;100.00;96810.50;5019309;28;20061;-79
2023/04/17 10:53:49;;;;;;;2.40;1.52;;;;;;;16.43;100.00;96816.94;5029472;28;20056;-82
2023/04/17 10:56:39;;;;;;;1.52;0.98;;;;;;;16.28;100.00;96812.03;5029404;28;20061;-75
2023/04/17 10:59:06;;;;;;;0.70;0.70;;;;;;;16.03;100.00;96822.63;5011832;28;20045;-75
2023/04/17 11:01:46;;;;;;;1.40;1.00;;;;;;;16.02;100.00;96837.97;5028927;28;20056;-75
2023/04/17 11:04:18;;;;;;;0.77;0.73;;;;;;;16.08;100.00;96842.78;5029007;28;20112;-77
2023/04/17 11:06:44;;;;;;;0.98;0.90;;;;;;;15.93;100.00;96852.34;5012476;28;20127;-76
2023/04/17 11:09:10;;;;;;;0.75;0.60;;;;;;;15.66;100.00;96844.97;5012114;28;20032;-75
2023/04/17 11:11:40;;;;;;;0.60;0.52;;;;;;;15.62;100.00;96851.66;5029021;28;20029;-75
2023/04/17 11:14:11;;;;;;;1.45;0.75;;;;;;;15.61;100.00;96852.66;5028553;28;20028;-75
2023/04/17 11:16:39;;;;;;;0.45;0.45;;;;;;;15.65;100.00;96853.22;5012640;28;20052;-75
2023/04/17 11:19:05;;;;;;;1.98;0.88;;;;;;;15.86;100.00;96855.75;5012272;28;20076;-74
2023/04/17 11:21:32;;;;;;;8.95;0.65;;;;;;;15.82;100.00;96857.88;5012373;28;20033;-72
2023/04/17 11:24:01;;;;;;;15.20;3.45;;;;;;;16.14;100.00;96863.78;5012343;28;20115;-73
2023/04/17 11:26:26;;;;;;;4.55;2.72;;;;;;;16.48;100.00;96858.69;5012689;28;20041;-81
2023/04/17 11:28:52;;;;;;;4.55;2.72;;;;;;;16.31;100.00;96835.16;5012599;28;20419;-73
2023/04/17 11:31:17;;;;;;;5.15;2.55;;;;;;;16.16;100.00;96824.00;5028507;28;20101;-73
2023/04/17 11:33:43;;;;;;;0.88;0.88;;;;;;;16.17;100.00;96831.13;5028750;28;20463;-76